Weather at Hoedspruit Air Force Base Airport

Public forecast

Using degrees Celsius for public forecast. Weather courtesy of forecast.io.

Current aviation weather report (METAR) for Hoedspruit Air Force Base Airport

Retrieved 2021/01/18 22:00 UTC (17 minutes ago):

FAHS 182200Z AUTO 13010KT //// // ////// 22/21 Q1016

Aviation forecast (TAF) for Hoedspruit Air Force Base Airport

Forecast is more than 12 hours old.

Retrieved 2017/05/23 04:01 UTC (4 years ago):

TAF FAHS 230300Z 2304/2315 VRB02KT CAVOK TX29/2312ZTN12/2304Z